sensor_id;sensor_type;location;lat;lon;timestamp;temperature;humidity
78696;SHT31;68030;51.980;5.646;2024-02-16T00:00:28;14.7;64.6
78696;SHT31;68030;51.980;5.646;2024-02-16T00:02:58;14.6;64.6
78696;SHT31;68030;51.980;5.646;2024-02-16T00:05:29;14.6;64.6
78696;SHT31;68030;51.980;5.646;2024-02-16T00:07:58;14.6;64.6
78696;SHT31;68030;51.980;5.646;2024-02-16T00:10:29;14.6;64.7
78696;SHT31;68030;51.980;5.646;2024-02-16T00:12:59;14.6;64.6
78696;SHT31;68030;51.980;5.646;2024-02-16T00:15:27;14.6;64.6
78696;SHT31;68030;51.980;5.646;2024-02-16T00:17:56;14.6;64.7
78696;SHT31;68030;51.980;5.646;2024-02-16T00:20:25;14.5;64.6
78696;SHT31;68030;51.980;5.646;2024-02-16T00:22:54;14.5;64.6
78696;SHT31;68030;51.980;5.646;2024-02-16T00:25:23;14.5;64.6
78696;SHT31;68030;51.980;5.646;2024-02-16T00:27:51;14.5;64.6
78696;SHT31;68030;51.980;5.646;2024-02-16T00:30:20;14.5;64.7
78696;SHT31;68030;51.980;5.646;2024-02-16T00:32:49;14.4;64.8
78696;SHT31;68030;51.980;5.646;2024-02-16T00:35:19;14.4;64.8
78696;SHT31;68030;51.980;5.646;2024-02-16T00:37:47;14.4;64.7
78696;SHT31;68030;51.980;5.646;2024-02-16T00:40:16;14.4;64.9
78696;SHT31;68030;51.980;5.646;2024-02-16T00:42:44;14.4;64.8
78696;SHT31;68030;51.980;5.646;2024-02-16T00:45:13;14.4;64.9
78696;SHT31;68030;51.980;5.646;2024-02-16T00:47:43;14.3;65.0
78696;SHT31;68030;51.980;5.646;2024-02-16T00:50:12;14.3;65.1
78696;SHT31;68030;51.980;5.646;2024-02-16T00:52:41;14.3;65.0
78696;SHT31;68030;51.980;5.646;2024-02-16T00:55:12;14.3;65.0
78696;SHT31;68030;51.980;5.646;2024-02-16T00:57:40;14.3;65.0
78696;SHT31;68030;51.980;5.646;2024-02-16T01:00:13;14.3;65.0
78696;SHT31;68030;51.980;5.646;2024-02-16T01:02:42;14.3;65.0
78696;SHT31;68030;51.980;5.646;2024-02-16T01:05:11;14.3;65.0
78696;SHT31;68030;51.980;5.646;2024-02-16T01:07:39;14.3;65.0
78696;SHT31;68030;51.980;5.646;2024-02-16T01:10:09;14.3;65.0
78696;SHT31;68030;51.980;5.646;2024-02-16T01:12:39;14.3;64.8
78696;SHT31;68030;51.980;5.646;2024-02-16T01:15:09;14.3;64.8
78696;SHT31;68030;51.980;5.646;2024-02-16T01:17:37;14.3;65.0
78696;SHT31;68030;51.980;5.646;2024-02-16T01:20:08;14.3;64.9
78696;SHT31;68030;51.980;5.646;2024-02-16T01:22:39;14.2;64.8
78696;SHT31;68030;51.980;5.646;2024-02-16T01:25:09;14.2;64.9
78696;SHT31;68030;51.980;5.646;2024-02-16T01:27:37;14.2;64.8
78696;SHT31;68030;51.980;5.646;2024-02-16T01:30:08;14.2;64.7
78696;SHT31;68030;51.980;5.646;2024-02-16T01:32:37;14.2;64.7
78696;SHT31;68030;51.980;5.646;2024-02-16T01:35:07;14.2;64.7
78696;SHT31;68030;51.980;5.646;2024-02-16T01:37:36;14.1;64.8
78696;SHT31;68030;51.980;5.646;2024-02-16T01:40:05;14.1;64.9
78696;SHT31;68030;51.980;5.646;2024-02-16T01:42:35;14.1;64.9
78696;SHT31;68030;51.980;5.646;2024-02-16T01:45:04;14.1;64.9
78696;SHT31;68030;51.980;5.646;2024-02-16T01:47:35;14.1;65.0
78696;SHT31;68030;51.980;5.646;2024-02-16T01:50:06;14.0;65.1
78696;SHT31;68030;51.980;5.646;2024-02-16T01:52:36;14.0;65.1
78696;SHT31;68030;51.980;5.646;2024-02-16T01:55:06;14.0;65.1
78696;SHT31;68030;51.980;5.646;2024-02-16T01:57:39;14.0;65.1
78696;SHT31;68030;51.980;5.646;2024-02-16T02:00:12;14.0;65.0
78696;SHT31;68030;51.980;5.646;2024-02-16T02:02:44;14.0;65.2
78696;SHT31;68030;51.980;5.646;2024-02-16T02:05:14;14.0;65.1
78696;SHT31;68030;51.980;5.646;2024-02-16T02:07:42;14.0;65.1
78696;SHT31;68030;51.980;5.646;2024-02-16T02:10:11;14.0;65.1
78696;SHT31;68030;51.980;5.646;2024-02-16T02:12:42;14.0;65.2
78696;SHT31;68030;51.980;5.646;2024-02-16T02:15:11;13.9;65.1
78696;SHT31;68030;51.980;5.646;2024-02-16T02:17:40;13.9;65.1
78696;SHT31;68030;51.980;5.646;2024-02-16T02:20:10;13.9;65.1
78696;SHT31;68030;51.980;5.646;2024-02-16T02:22:39;13.9;65.1
78696;SHT31;68030;51.980;5.646;2024-02-16T02:25:08;13.9;65.0
78696;SHT31;68030;51.980;5.646;2024-02-16T02:27:38;13.9;65.1
78696;SHT31;68030;51.980;5.646;2024-02-16T02:30:08;13.9;65.1
78696;SHT31;68030;51.980;5.646;2024-02-16T02:32:37;13.9;65.2
78696;SHT31;68030;51.980;5.646;2024-02-16T02:35:10;13.9;65.3
78696;SHT31;68030;51.980;5.646;2024-02-16T02:37:40;13.9;65.2
78696;SHT31;68030;51.980;5.646;2024-02-16T02:40:10;14.0;65.2
78696;SHT31;68030;51.980;5.646;2024-02-16T02:42:39;14.0;65.1
78696;SHT31;68030;51.980;5.646;2024-02-16T02:45:08;14.0;65.0
78696;SHT31;68030;51.980;5.646;2024-02-16T02:47:37;14.0;64.9
78696;SHT31;68030;51.980;5.646;2024-02-16T02:50:09;14.0;64.8
78696;SHT31;68030;51.980;5.646;2024-02-16T02:52:38;14.0;64.8
78696;SHT31;68030;51.980;5.646;2024-02-16T02:55:07;14.0;64.8
78696;SHT31;68030;51.980;5.646;2024-02-16T02:57:37;14.0;64.7
78696;SHT31;68030;51.980;5.646;2024-02-16T03:00:07;14.0;64.7
78696;SHT31;68030;51.980;5.646;2024-02-16T03:02:38;14.0;64.7
78696;SHT31;68030;51.980;5.646;2024-02-16T03:05:07;14.0;64.7
78696;SHT31;68030;51.980;5.646;2024-02-16T03:07:36;14.1;64.6
78696;SHT31;68030;51.980;5.646;2024-02-16T03:10:07;14.1;64.6
78696;SHT31;68030;51.980;5.646;2024-02-16T03:12:37;14.1;64.6
78696;SHT31;68030;51.980;5.646;2024-02-16T03:15:07;14.1;64.5
78696;SHT31;68030;51.980;5.646;2024-02-16T03:17:35;14.1;64.4
78696;SHT31;68030;51.980;5.646;2024-02-16T03:20:05;14.1;64.5
78696;SHT31;68030;51.980;5.646;2024-02-16T03:22:34;14.1;64.3
78696;SHT31;68030;51.980;5.646;2024-02-16T03:25:04;14.1;64.4
78696;SHT31;68030;51.980;5.646;2024-02-16T03:27:33;14.2;64.2
78696;SHT31;68030;51.980;5.646;2024-02-16T03:30:02;14.2;64.0
78696;SHT31;68030;51.980;5.646;2024-02-16T03:32:31;14.2;64.0
78696;SHT31;68030;51.980;5.646;2024-02-16T03:35:00;14.2;63.9
78696;SHT31;68030;51.980;5.646;2024-02-16T03:37:30;14.2;63.9
78696;SHT31;68030;51.980;5.646;2024-02-16T03:40:00;14.2;63.8
78696;SHT31;68030;51.980;5.646;2024-02-16T03:42:31;14.1;63.8
78696;SHT31;68030;51.980;5.646;2024-02-16T03:44:59;14.1;63.8
78696;SHT31;68030;51.980;5.646;2024-02-16T03:47:28;14.1;63.8
78696;SHT31;68030;51.980;5.646;2024-02-16T03:49:57;14.1;63.8
78696;SHT31;68030;51.980;5.646;2024-02-16T03:52:25;14.1;63.9
78696;SHT31;68030;51.980;5.646;2024-02-16T03:54:53;14.1;63.9
78696;SHT31;68030;51.980;5.646;2024-02-16T03:57:22;14.0;64.0
78696;SHT31;68030;51.980;5.646;2024-02-16T03:59:50;14.0;64.1
78696;SHT31;68030;51.980;5.646;2024-02-16T04:02:19;14.0;64.1
78696;SHT31;68030;51.980;5.646;2024-02-16T04:04:47;14.0;64.2
78696;SHT31;68030;51.980;5.646;2024-02-16T04:07:17;14.0;64.4
78696;SHT31;68030;51.980;5.646;2024-02-16T04:09:46;13.9;64.3
78696;SHT31;68030;51.980;5.646;2024-02-16T04:12:14;13.9;64.4
78696;SHT31;68030;51.980;5.646;2024-02-16T04:14:42;13.9;64.4
78696;SHT31;68030;51.980;5.646;2024-02-16T04:17:12;13.9;64.5
78696;SHT31;68030;51.980;5.646;2024-02-16T04:19:40;13.9;64.4
78696;SHT31;68030;51.980;5.646;2024-02-16T04:22:10;13.9;64.4
78696;SHT31;68030;51.980;5.646;2024-02-16T04:24:38;13.9;64.4
78696;SHT31;68030;51.980;5.646;2024-02-16T04:27:07;13.9;64.4
78696;SHT31;68030;51.980;5.646;2024-02-16T04:29:36;13.9;64.5
78696;SHT31;68030;51.980;5.646;2024-02-16T04:32:05;13.9;64.3
78696;SHT31;68030;51.980;5.646;2024-02-16T04:34:36;13.9;64.3
78696;SHT31;68030;51.980;5.646;2024-02-16T04:37:05;13.9;64.3
78696;SHT31;68030;51.980;5.646;2024-02-16T04:39:34;13.9;64.3
78696;SHT31;68030;51.980;5.646;2024-02-16T04:42:03;13.9;64.3
78696;SHT31;68030;51.980;5.646;2024-02-16T04:44:31;14.0;64.2
78696;SHT31;68030;51.980;5.646;2024-02-16T04:47:00;14.0;64.2
78696;SHT31;68030;51.980;5.646;2024-02-16T04:49:30;14.0;64.1
78696;SHT31;68030;51.980;5.646;2024-02-16T04:51:58;14.0;64.1
78696;SHT31;68030;51.980;5.646;2024-02-16T04:54:29;14.1;63.9
78696;SHT31;68030;51.980;5.646;2024-02-16T04:56:57;14.1;64.0
78696;SHT31;68030;51.980;5.646;2024-02-16T04:59:26;14.1;63.9
78696;SHT31;68030;51.980;5.646;2024-02-16T05:01:55;14.2;63.7
78696;SHT31;68030;51.980;5.646;2024-02-16T05:04:24;14.2;63.6
78696;SHT31;68030;51.980;5.646;2024-02-16T05:06:54;14.2;63.6
78696;SHT31;68030;51.980;5.646;2024-02-16T05:09:23;14.2;63.5
78696;SHT31;68030;51.980;5.646;2024-02-16T05:11:53;14.3;63.5
78696;SHT31;68030;51.980;5.646;2024-02-16T05:14:21;14.3;63.3
78696;SHT31;68030;51.980;5.646;2024-02-16T05:16:50;14.3;63.2
78696;SHT31;68030;51.980;5.646;2024-02-16T05:19:19;14.3;63.2
78696;SHT31;68030;51.980;5.646;2024-02-16T05:21:47;14.4;63.2
78696;SHT31;68030;51.980;5.646;2024-02-16T05:24:16;14.4;63.3
78696;SHT31;68030;51.980;5.646;2024-02-16T05:26:44;14.4;63.2
78696;SHT31;68030;51.980;5.646;2024-02-16T05:29:13;14.4;63.3
78696;SHT31;68030;51.980;5.646;2024-02-16T05:31:42;14.4;63.3
78696;SHT31;68030;51.980;5.646;2024-02-16T05:34:10;14.4;63.2
78696;SHT31;68030;51.980;5.646;2024-02-16T05:36:40;14.4;63.2
78696;SHT31;68030;51.980;5.646;2024-02-16T05:39:09;14.5;63.1
78696;SHT31;68030;51.980;5.646;2024-02-16T05:41:42;14.5;63.1
78696;SHT31;68030;51.980;5.646;2024-02-16T05:44:11;14.5;63.1
78696;SHT31;68030;51.980;5.646;2024-02-16T05:46:40;14.5;63.1
78696;SHT31;68030;51.980;5.646;2024-02-16T05:49:08;14.5;63.0
78696;SHT31;68030;51.980;5.646;2024-02-16T05:51:38;14.6;63.0
78696;SHT31;68030;51.980;5.646;2024-02-16T05:54:08;14.6;62.9
78696;SHT31;68030;51.980;5.646;2024-02-16T05:56:37;14.6;62.9
78696;SHT31;68030;51.980;5.646;2024-02-16T05:59:07;14.6;62.9
78696;SHT31;68030;51.980;5.646;2024-02-16T06:01:36;14.6;63.0
78696;SHT31;68030;51.980;5.646;2024-02-16T06:04:06;14.6;62.9
78696;SHT31;68030;51.980;5.646;2024-02-16T06:06:35;14.6;62.9
78696;SHT31;68030;51.980;5.646;2024-02-16T06:09:05;14.6;63.0
78696;SHT31;68030;51.980;5.646;2024-02-16T06:11:36;14.6;63.0
78696;SHT31;68030;51.980;5.646;2024-02-16T06:14:04;14.6;63.0
78696;SHT31;68030;51.980;5.646;2024-02-16T06:16:33;14.6;63.1
78696;SHT31;68030;51.980;5.646;2024-02-16T06:19:01;14.6;63.0
78696;SHT31;68030;51.980;5.646;2024-02-16T06:21:30;14.6;63.1
78696;SHT31;68030;51.980;5.646;2024-02-16T06:23:58;14.7;63.1
78696;SHT31;68030;51.980;5.646;2024-02-16T06:26:27;14.7;63.1
78696;SHT31;68030;51.980;5.646;2024-02-16T06:28:55;14.7;63.0
78696;SHT31;68030;51.980;5.646;2024-02-16T06:31:24;14.7;63.1
78696;SHT31;68030;51.980;5.646;2024-02-16T06:33:53;14.7;63.0
78696;SHT31;68030;51.980;5.646;2024-02-16T06:36:22;14.7;63.1
78696;SHT31;68030;51.980;5.646;2024-02-16T06:38:51;14.7;63.1
78696;SHT31;68030;51.980;5.646;2024-02-16T06:41:22;14.8;63.1
78696;SHT31;68030;51.980;5.646;2024-02-16T06:43:50;14.8;63.1
78696;SHT31;68030;51.980;5.646;2024-02-16T06:46:21;14.8;63.1
78696;SHT31;68030;51.980;5.646;2024-02-16T06:48:53;14.8;63.1
78696;SHT31;68030;51.980;5.646;2024-02-16T06:51:23;14.8;63.1
78696;SHT31;68030;51.980;5.646;2024-02-16T06:53:53;14.8;63.0
78696;SHT31;68030;51.980;5.646;2024-02-16T06:56:21;14.8;63.1
78696;SHT31;68030;51.980;5.646;2024-02-16T06:58:50;14.8;63.1
78696;SHT31;68030;51.980;5.646;2024-02-16T07:01:22;14.8;63.2
78696;SHT31;68030;51.980;5.646;2024-02-16T07:03:52;14.8;63.2
78696;SHT31;68030;51.980;5.646;2024-02-16T07:06:21;14.8;63.2
78696;SHT31;68030;51.980;5.646;2024-02-16T07:08:49;14.8;63.3
78696;SHT31;68030;51.980;5.646;2024-02-16T07:11:18;14.8;63.4
78696;SHT31;68030;51.980;5.646;2024-02-16T07:13:47;14.8;63.5
78696;SHT31;68030;51.980;5.646;2024-02-16T07:16:15;14.8;63.5
78696;SHT31;68030;51.980;5.646;2024-02-16T07:18:45;14.8;63.6
78696;SHT31;68030;51.980;5.646;2024-02-16T07:21:13;14.9;63.7
78696;SHT31;68030;51.980;5.646;2024-02-16T07:23:44;14.9;63.8
78696;SHT31;68030;51.980;5.646;2024-02-16T07:26:13;14.9;63.7
78696;SHT31;68030;51.980;5.646;2024-02-16T07:28:43;14.9;63.8
78696;SHT31;68030;51.980;5.646;2024-02-16T07:31:12;14.9;63.8
78696;SHT31;68030;51.980;5.646;2024-02-16T07:33:40;14.9;63.9
78696;SHT31;68030;51.980;5.646;2024-02-16T07:36:09;15.0;63.9
78696;SHT31;68030;51.980;5.646;2024-02-16T07:38:38;15.0;63.8
78696;SHT31;68030;51.980;5.646;2024-02-16T07:41:06;15.0;63.9
78696;SHT31;68030;51.980;5.646;2024-02-16T07:43:35;15.0;63.9
78696;SHT31;68030;51.980;5.646;2024-02-16T07:46:05;15.1;63.9
78696;SHT31;68030;51.980;5.646;2024-02-16T07:48:34;15.1;63.9
78696;SHT31;68030;51.980;5.646;2024-02-16T07:51:03;15.1;63.8
78696;SHT31;68030;51.980;5.646;2024-02-16T07:53:32;15.1;63.8
78696;SHT31;68030;51.980;5.646;2024-02-16T07:56:02;15.2;63.9
78696;SHT31;68030;51.980;5.646;2024-02-16T07:58:31;15.2;63.9
78696;SHT31;68030;51.980;5.646;2024-02-16T08:01:00;15.2;63.9
78696;SHT31;68030;51.980;5.646;2024-02-16T08:03:29;15.2;64.0
78696;SHT31;68030;51.980;5.646;2024-02-16T08:06:00;15.3;64.1
78696;SHT31;68030;51.980;5.646;2024-02-16T08:08:28;15.3;64.0
78696;SHT31;68030;51.980;5.646;2024-02-16T08:10:57;15.3;64.0
78696;SHT31;68030;51.980;5.646;2024-02-16T08:13:25;15.4;64.0
78696;SHT31;68030;51.980;5.646;2024-02-16T08:15:54;15.4;64.0
78696;SHT31;68030;51.980;5.646;2024-02-16T08:18:23;15.4;64.1
78696;SHT31;68030;51.980;5.646;2024-02-16T08:20:53;15.4;64.0
78696;SHT31;68030;51.980;5.646;2024-02-16T08:23:23;15.5;64.0
78696;SHT31;68030;51.980;5.646;2024-02-16T08:25:52;15.5;64.0
78696;SHT31;68030;51.980;5.646;2024-02-16T08:28:20;15.5;64.1
78696;SHT31;68030;51.980;5.646;2024-02-16T08:30:49;15.6;64.0
78696;SHT31;68030;51.980;5.646;2024-02-16T08:33:17;15.6;64.0
78696;SHT31;68030;51.980;5.646;2024-02-16T08:35:46;15.6;64.2
78696;SHT31;68030;51.980;5.646;2024-02-16T08:38:14;15.6;64.1
78696;SHT31;68030;51.980;5.646;2024-02-16T08:40:43;15.6;64.2
78696;SHT31;68030;51.980;5.646;2024-02-16T08:43:13;15.7;64.2
78696;SHT31;68030;51.980;5.646;2024-02-16T08:45:42;15.7;64.2
78696;SHT31;68030;51.980;5.646;2024-02-16T08:48:11;15.8;64.1
78696;SHT31;68030;51.980;5.646;2024-02-16T08:50:39;15.8;64.1
78696;SHT31;68030;51.980;5.646;2024-02-16T08:53:08;15.9;64.1
78696;SHT31;68030;51.980;5.646;2024-02-16T08:55:37;15.9;63.8
78696;SHT31;68030;51.980;5.646;2024-02-16T08:58:07;16.0;63.8
78696;SHT31;68030;51.980;5.646;2024-02-16T09:00:36;16.0;63.8
78696;SHT31;68030;51.980;5.646;2024-02-16T09:03:05;16.0;63.7
78696;SHT31;68030;51.980;5.646;2024-02-16T09:05:35;16.1;63.5
78696;SHT31;68030;51.980;5.646;2024-02-16T09:08:04;16.1;63.6
78696;SHT31;68030;51.980;5.646;2024-02-16T09:10:33;16.2;63.5
78696;SHT31;68030;51.980;5.646;2024-02-16T09:13:01;16.2;63.4
78696;SHT31;68030;51.980;5.646;2024-02-16T09:15:30;16.3;63.5
78696;SHT31;68030;51.980;5.646;2024-02-16T09:17:58;16.3;63.2
78696;SHT31;68030;51.980;5.646;2024-02-16T09:20:27;16.4;62.9
78696;SHT31;68030;51.980;5.646;2024-02-16T09:22:57;16.5;62.8
78696;SHT31;68030;51.980;5.646;2024-02-16T09:25:26;16.5;62.8
78696;SHT31;68030;51.980;5.646;2024-02-16T09:27:55;16.5;62.7
78696;SHT31;68030;51.980;5.646;2024-02-16T09:30:23;16.6;62.5
78696;SHT31;68030;51.980;5.646;2024-02-16T09:32:53;16.6;62.5
78696;SHT31;68030;51.980;5.646;2024-02-16T09:35:22;16.7;62.7
78696;SHT31;68030;51.980;5.646;2024-02-16T09:37:50;16.7;63.5
78696;SHT31;68030;51.980;5.646;2024-02-16T09:40:19;16.7;64.0
78696;SHT31;68030;51.980;5.646;2024-02-16T09:42:50;16.7;64.3
78696;SHT31;68030;51.980;5.646;2024-02-16T09:45:18;16.7;64.3
78696;SHT31;68030;51.980;5.646;2024-02-16T09:47:46;16.7;64.7
78696;SHT31;68030;51.980;5.646;2024-02-16T09:50:16;16.7;64.7
78696;SHT31;68030;51.980;5.646;2024-02-16T09:52:47;16.7;65.1
78696;SHT31;68030;51.980;5.646;2024-02-16T09:55:17;16.7;65.0
78696;SHT31;68030;51.980;5.646;2024-02-16T09:57:57;16.8;64.7
78696;SHT31;68030;51.980;5.646;2024-02-16T10:00:21;16.8;64.9
78696;SHT31;68030;51.980;5.646;2024-02-16T10:02:50;16.8;64.6
78696;SHT31;68030;51.980;5.646;2024-02-16T10:05:20;16.9;64.8
78696;SHT31;68030;51.980;5.646;2024-02-16T10:07:49;16.9;64.6
78696;SHT31;68030;51.980;5.646;2024-02-16T10:10:24;16.9;64.5
78696;SHT31;68030;51.980;5.646;2024-02-16T10:13:03;17.0;64.1
78696;SHT31;68030;51.980;5.646;2024-02-16T10:15:33;17.0;63.9
78696;SHT31;68030;51.980;5.646;2024-02-16T10:18:04;17.0;63.6
78696;SHT31;68030;51.980;5.646;2024-02-16T10:20:35;17.0;63.6
78696;SHT31;68030;51.980;5.646;2024-02-16T10:23:09;17.0;63.3
78696;SHT31;68030;51.980;5.646;2024-02-16T10:25:39;17.0;63.3
78696;SHT31;68030;51.980;5.646;2024-02-16T10:28:10;17.0;63.2
78696;SHT31;68030;51.980;5.646;2024-02-16T10:30:42;17.0;63.0
78696;SHT31;68030;51.980;5.646;2024-02-16T10:33:12;17.0;63.6
78696;SHT31;68030;51.980;5.646;2024-02-16T10:35:41;17.0;63.7
78696;SHT31;68030;51.980;5.646;2024-02-16T10:38:10;17.0;63.6
78696;SHT31;68030;51.980;5.646;2024-02-16T10:40:40;16.9;63.6
78696;SHT31;68030;51.980;5.646;2024-02-16T10:43:13;16.9;63.7
78696;SHT31;68030;51.980;5.646;2024-02-16T10:45:43;16.9;63.5
78696;SHT31;68030;51.980;5.646;2024-02-16T10:48:15;16.9;63.7
78696;SHT31;68030;51.980;5.646;2024-02-16T10:50:44;16.9;63.9
78696;SHT31;68030;51.980;5.646;2024-02-16T10:53:22;16.9;64.1
78696;SHT31;68030;51.980;5.646;2024-02-16T10:55:52;16.9;64.5
78696;SHT31;68030;51.980;5.646;2024-02-16T10:58:21;16.8;65.0
78696;SHT31;68030;51.980;5.646;2024-02-16T11:00:50;16.8;65.4
78696;SHT31;68030;51.980;5.646;2024-02-16T11:03:22;16.7;65.6
78696;SHT31;68030;51.980;5.646;2024-02-16T11:05:54;16.7;65.8
78696;SHT31;68030;51.980;5.646;2024-02-16T11:08:25;16.6;66.3
78696;SHT31;68030;51.980;5.646;2024-02-16T11:11:00;16.5;66.5
78696;SHT31;68030;51.980;5.646;2024-02-16T11:13:33;16.5;66.8
78696;SHT31;68030;51.980;5.646;2024-02-16T11:16:06;16.4;67.0
78696;SHT31;68030;51.980;5.646;2024-02-16T11:18:41;16.3;67.4
78696;SHT31;68030;51.980;5.646;2024-02-16T11:21:14;16.2;67.7
78696;SHT31;68030;51.980;5.646;2024-02-16T11:23:44;16.2;68.1
78696;SHT31;68030;51.980;5.646;2024-02-16T11:26:17;16.1;68.4
78696;SHT31;68030;51.980;5.646;2024-02-16T11:28:46;16.0;68.7
78696;SHT31;68030;51.980;5.646;2024-02-16T11:31:15;15.9;69.3
78696;SHT31;68030;51.980;5.646;2024-02-16T11:33:47;15.8;69.6
78696;SHT31;68030;51.980;5.646;2024-02-16T11:36:16;15.8;70.2
78696;SHT31;68030;51.980;5.646;2024-02-16T11:38:46;15.7;70.5
78696;SHT31;68030;51.980;5.646;2024-02-16T11:41:15;15.6;70.9
78696;SHT31;68030;51.980;5.646;2024-02-16T11:43:45;15.6;71.1
78696;SHT31;68030;51.980;5.646;2024-02-16T11:46:15;15.6;71.5
78696;SHT31;68030;51.980;5.646;2024-02-16T11:48:45;15.5;71.6
78696;SHT31;68030;51.980;5.646;2024-02-16T11:51:15;15.5;71.6
78696;SHT31;68030;51.980;5.646;2024-02-16T11:53:56;15.4;71.8
78696;SHT31;68030;51.980;5.646;2024-02-16T11:56:26;15.4;72.1
78696;SHT31;68030;51.980;5.646;2024-02-16T11:58:56;15.4;72.0
78696;SHT31;68030;51.980;5.646;2024-02-16T12:01:25;15.4;72.1
78696;SHT31;68030;51.980;5.646;2024-02-16T12:03:54;15.3;72.3
78696;SHT31;68030;51.980;5.646;2024-02-16T12:06:23;15.3;72.6
78696;SHT31;68030;51.980;5.646;2024-02-16T12:08:52;15.3;72.8
78696;SHT31;68030;51.980;5.646;2024-02-16T12:11:20;15.3;72.9
78696;SHT31;68030;51.980;5.646;2024-02-16T12:13:49;15.3;73.0
78696;SHT31;68030;51.980;5.646;2024-02-16T12:16:20;15.3;73.2
78696;SHT31;68030;51.980;5.646;2024-02-16T12:18:48;15.3;73.2
78696;SHT31;68030;51.980;5.646;2024-02-16T12:21:17;15.3;73.2
78696;SHT31;68030;51.980;5.646;2024-02-16T12:23:48;15.3;73.1
78696;SHT31;68030;51.980;5.646;2024-02-16T12:26:17;15.3;73.2
78696;SHT31;68030;51.980;5.646;2024-02-16T12:28:47;15.3;73.0
78696;SHT31;68030;51.980;5.646;2024-02-16T12:31:21;15.3;72.8
78696;SHT31;68030;51.980;5.646;2024-02-16T12:33:49;15.2;72.9
78696;SHT31;68030;51.980;5.646;2024-02-16T12:36:18;15.2;72.8
78696;SHT31;68030;51.980;5.646;2024-02-16T12:38:49;15.2;73.0
78696;SHT31;68030;51.980;5.646;2024-02-16T12:41:18;15.2;73.0
78696;SHT31;68030;51.980;5.646;2024-02-16T12:43:46;15.2;73.1
78696;SHT31;68030;51.980;5.646;2024-02-16T12:46:16;15.2;73.0
78696;SHT31;68030;51.980;5.646;2024-02-16T12:48:44;15.2;72.9
78696;SHT31;68030;51.980;5.646;2024-02-16T12:51:13;15.2;73.0
78696;SHT31;68030;51.980;5.646;2024-02-16T12:53:43;15.2;72.9
78696;SHT31;68030;51.980;5.646;2024-02-16T12:56:13;15.2;72.7
78696;SHT31;68030;51.980;5.646;2024-02-16T12:58:42;15.2;72.8
78696;SHT31;68030;51.980;5.646;2024-02-16T13:01:11;15.2;72.8
78696;SHT31;68030;51.980;5.646;2024-02-16T13:03:42;15.2;72.8
78696;SHT31;68030;51.980;5.646;2024-02-16T13:06:11;15.2;72.8
78696;SHT31;68030;51.980;5.646;2024-02-16T13:08:39;15.2;72.8
78696;SHT31;68030;51.980;5.646;2024-02-16T13:11:10;15.2;72.8
78696;SHT31;68030;51.980;5.646;2024-02-16T13:13:39;15.2;73.1
78696;SHT31;68030;51.980;5.646;2024-02-16T13:16:08;15.2;73.1
78696;SHT31;68030;51.980;5.646;2024-02-16T13:18:37;15.2;73.3
78696;SHT31;68030;51.980;5.646;2024-02-16T13:21:05;15.2;73.4
78696;SHT31;68030;51.980;5.646;2024-02-16T13:23:34;15.3;73.2
78696;SHT31;68030;51.980;5.646;2024-02-16T13:26:03;15.3;72.9
78696;SHT31;68030;51.980;5.646;2024-02-16T13:28:33;15.3;72.8
78696;SHT31;68030;51.980;5.646;2024-02-16T13:31:02;15.4;72.3
78696;SHT31;68030;51.980;5.646;2024-02-16T13:33:30;15.4;72.5
78696;SHT31;68030;51.980;5.646;2024-02-16T13:35:59;15.5;72.1
78696;SHT31;68030;51.980;5.646;2024-02-16T13:38:27;15.5;71.8
78696;SHT31;68030;51.980;5.646;2024-02-16T13:40:58;15.5;71.7
78696;SHT31;68030;51.980;5.646;2024-02-16T13:43:27;15.6;71.6
78696;SHT31;68030;51.980;5.646;2024-02-16T13:45:56;15.6;71.3
78696;SHT31;68030;51.980;5.646;2024-02-16T13:48:25;15.6;71.0
78696;SHT31;68030;51.980;5.646;2024-02-16T13:50:54;15.7;71.1
78696;SHT31;68030;51.980;5.646;2024-02-16T13:53:23;15.7;71.0
78696;SHT31;68030;51.980;5.646;2024-02-16T13:55:52;15.8;70.6
78696;SHT31;68030;51.980;5.646;2024-02-16T13:58:21;15.8;70.2
78696;SHT31;68030;51.980;5.646;2024-02-16T14:00:50;15.8;69.8
78696;SHT31;68030;51.980;5.646;2024-02-16T14:03:19;15.8;69.3
78696;SHT31;68030;51.980;5.646;2024-02-16T14:05:47;15.8;69.1
78696;SHT31;68030;51.980;5.646;2024-02-16T14:08:17;15.8;69.2
78696;SHT31;68030;51.980;5.646;2024-02-16T14:10:46;15.8;69.2
78696;SHT31;68030;51.980;5.646;2024-02-16T14:13:14;15.9;68.4
78696;SHT31;68030;51.980;5.646;2024-02-16T14:15:43;15.9;68.5
78696;SHT31;68030;51.980;5.646;2024-02-16T14:18:12;15.9;68.9
78696;SHT31;68030;51.980;5.646;2024-02-16T14:20:40;15.9;68.4
78696;SHT31;68030;51.980;5.646;2024-02-16T14:23:09;15.9;68.4
78696;SHT31;68030;51.980;5.646;2024-02-16T14:25:37;15.9;68.5
78696;SHT31;68030;51.980;5.646;2024-02-16T14:28:07;16.0;68.3
78696;SHT31;68030;51.980;5.646;2024-02-16T14:30:36;16.0;68.1
78696;SHT31;68030;51.980;5.646;2024-02-16T14:33:07;16.0;67.9
78696;SHT31;68030;51.980;5.646;2024-02-16T14:35:36;16.1;67.7
78696;SHT31;68030;51.980;5.646;2024-02-16T14:38:06;16.1;66.9
78696;SHT31;68030;51.980;5.646;2024-02-16T14:40:36;16.1;67.2
78696;SHT31;68030;51.980;5.646;2024-02-16T14:43:05;16.1;67.2
78696;SHT31;68030;51.980;5.646;2024-02-16T14:45:34;16.1;67.2
78696;SHT31;68030;51.980;5.646;2024-02-16T14:48:05;16.1;67.2
78696;SHT31;68030;51.980;5.646;2024-02-16T14:50:34;16.1;67.1
78696;SHT31;68030;51.980;5.646;2024-02-16T14:53:03;16.1;67.1
78696;SHT31;68030;51.980;5.646;2024-02-16T14:55:32;16.1;67.1
78696;SHT31;68030;51.980;5.646;2024-02-16T14:58:00;16.1;67.0
78696;SHT31;68030;51.980;5.646;2024-02-16T15:00:30;16.1;67.1
78696;SHT31;68030;51.980;5.646;2024-02-16T15:03:00;16.1;67.3
78696;SHT31;68030;51.980;5.646;2024-02-16T15:05:29;16.1;67.4
78696;SHT31;68030;51.980;5.646;2024-02-16T15:07:58;16.0;67.1
78696;SHT31;68030;51.980;5.646;2024-02-16T15:10:27;16.0;67.0
78696;SHT31;68030;51.980;5.646;2024-02-16T15:12:55;16.0;66.6
78696;SHT31;68030;51.980;5.646;2024-02-16T15:15:24;16.0;66.2
78696;SHT31;68030;51.980;5.646;2024-02-16T15:17:52;16.0;66.3
78696;SHT31;68030;51.980;5.646;2024-02-16T15:20:22;16.0;66.2
78696;SHT31;68030;51.980;5.646;2024-02-16T15:22:50;16.0;65.7
78696;SHT31;68030;51.980;5.646;2024-02-16T15:25:19;16.0;65.5
78696;SHT31;68030;51.980;5.646;2024-02-16T15:27:49;16.0;65.7
78696;SHT31;68030;51.980;5.646;2024-02-16T15:30:19;16.0;65.8
78696;SHT31;68030;51.980;5.646;2024-02-16T15:32:48;15.9;66.0
78696;SHT31;68030;51.980;5.646;2024-02-16T15:35:17;15.9;66.4
78696;SHT31;68030;51.980;5.646;2024-02-16T15:37:47;15.9;66.5
78696;SHT31;68030;51.980;5.646;2024-02-16T15:40:16;15.9;66.1
78696;SHT31;68030;51.980;5.646;2024-02-16T15:43:01;15.9;65.6
78696;SHT31;68030;51.980;5.646;2024-02-16T15:45:31;15.9;66.3
78696;SHT31;68030;51.980;5.646;2024-02-16T15:48:01;15.9;66.0
78696;SHT31;68030;51.980;5.646;2024-02-16T15:50:31;15.9;66.1
78696;SHT31;68030;51.980;5.646;2024-02-16T15:53:00;15.9;66.2
78696;SHT31;68030;51.980;5.646;2024-02-16T15:55:28;15.9;66.7
78696;SHT31;68030;51.980;5.646;2024-02-16T15:57:57;15.9;66.6
78696;SHT31;68030;51.980;5.646;2024-02-16T16:00:26;15.8;67.0
78696;SHT31;68030;51.980;5.646;2024-02-16T16:02:56;15.8;66.8
78696;SHT31;68030;51.980;5.646;2024-02-16T16:05:27;15.8;66.8
78696;SHT31;68030;51.980;5.646;2024-02-16T16:07:56;15.8;67.0
78696;SHT31;68030;51.980;5.646;2024-02-16T16:10:24;15.8;67.2
78696;SHT31;68030;51.980;5.646;2024-02-16T16:12:53;15.9;67.3
78696;SHT31;68030;51.980;5.646;2024-02-16T16:15:22;15.9;67.0